Time;durP1;ratioP1;P1;durP2;ratioP2;P2;SDS_P1;SDS_P2;PMS_P1;PMS_P2;Temp;Humidity;BMP_temperature;BMP_pressure;BME280_temperature;BME280_humidity;BME280_pressure;Samples;Min_cycle;Max_cycle;Signal;HPM_P1;HPM_P2
2023/09/29 00:00:18;;;;;;;;;;;15.90;99.90;;;15.26;100.00;97819.03;4983419;28;20012;-73
2023/09/29 00:02:47;;;;;;;;;;;15.80;99.90;;;15.21;100.00;97814.97;4981452;28;20334;-72
2023/09/29 00:05:17;;;;;;;;;;;15.60;99.90;;;15.03;100.00;97814.28;4984322;28;19932;-72
2023/09/29 00:07:46;;;;;;;;;;;15.50;99.90;;;14.99;100.00;97810.16;4984017;28;20044;-72
2023/09/29 00:10:15;;;;;;;;;;;15.40;99.90;;;14.79;100.00;97812.09;4983176;28;19948;-72
2023/09/29 00:12:43;;;;;;;;;;;15.30;99.90;;;14.79;100.00;97809.50;4983537;28;20044;-73
2023/09/29 00:15:11;;;;;;;;;;;15.30;99.90;;;14.75;100.00;97807.97;4982421;28;20461;-72
2023/09/29 00:17:39;;;;;;;;;;;15.20;99.90;;;14.73;100.00;97809.00;4984735;28;19980;-72
2023/09/29 00:20:26;;;;;;;;;;;15.20;99.90;;;14.80;100.00;97810.31;4983390;28;20305;-72
2023/09/29 00:22:56;;;;;;;;;;;15.30;99.90;;;14.95;100.00;97814.69;4990247;28;20389;-72
2023/09/29 00:25:23;;;;;;;;;;;15.40;99.90;;;15.09;100.00;97815.69;4988388;28;19952;-72
2023/09/29 00:27:51;;;;;;;;;;;15.60;99.90;;;15.07;100.00;97807.94;4991647;28;19941;-72
2023/09/29 00:30:20;;;;;;;;;;;15.70;99.90;;;14.99;100.00;97821.44;4985752;28;19929;-73
2023/09/29 00:32:52;;;;;;;;;;;15.70;99.90;;;15.04;100.00;97814.19;4986621;28;20405;-72
2023/09/29 00:35:24;;;;;;;;;;;15.70;99.90;;;15.06;100.00;97817.56;4987087;28;20028;-73
2023/09/29 00:37:53;;;;;;;;;;;15.70;99.90;;;15.20;100.00;97818.53;4988432;28;19987;-72
2023/09/29 00:40:21;;;;;;;;;;;15.80;99.90;;;15.23;100.00;97813.13;4980779;28;19933;-72
2023/09/29 00:42:49;;;;;;;;;;;15.80;99.90;;;15.20;100.00;97816.75;4986550;28;19930;-72
2023/09/29 00:45:19;;;;;;;;;;;15.90;99.90;;;15.23;100.00;97818.34;4973832;28;20272;-72
2023/09/29 00:47:49;;;;;;;;;;;15.90;99.90;;;15.24;100.00;97814.81;4987856;28;19921;-73
2023/09/29 00:50:19;;;;;;;;;;;15.80;99.90;;;15.21;100.00;97812.38;4987254;28;19921;-73
2023/09/29 00:52:47;;;;;;;;;;;15.80;99.90;;;15.11;100.00;97809.44;4981849;28;20425;-73
2023/09/29 00:55:15;;;;;;;;;;;15.70;99.90;;;15.17;100.00;97803.88;4987989;28;20460;-73
2023/09/29 00:57:48;;;;;;;;;;;15.70;99.90;;;15.09;100.00;97811.31;4984845;28;19922;-72
2023/09/29 01:02:48;;;;;;;;;;;15.70;99.90;;;15.00;100.00;97822.28;4984575;28;19944;-73
2023/09/29 01:05:16;;;;;;;;;;;15.60;99.90;;;14.87;100.00;97824.75;4985744;28;19937;-72
2023/09/29 01:07:43;;;;;;;;;;;15.50;99.90;;;14.88;100.00;97821.22;4987777;28;19921;-73
2023/09/29 01:10:17;;;;;;;;;;;15.40;99.90;;;14.89;100.00;97824.66;4983886;28;19933;-73
2023/09/29 01:12:44;;;;;;;;;;;15.40;99.90;;;14.89;100.00;97820.25;4985184;28;20437;-73
2023/09/29 01:15:13;;;;;;;;;;;15.30;99.90;;;14.85;100.00;97814.38;4986644;28;20354;-73
2023/09/29 01:17:42;;;;;;;;;;;15.40;99.90;;;15.04;100.00;97814.19;4983233;28;19940;-73
2023/09/29 01:20:25;;;;;;;;;;;15.40;99.90;;;15.14;100.00;97813.66;4984234;28;20432;-73
2023/09/29 01:22:52;;;;;;;;;;;15.60;99.90;;;15.31;100.00;97805.69;4981369;28;19932;-73
2023/09/29 01:25:22;;;;;;;;;;;15.70;99.90;;;15.28;100.00;97805.88;4981942;28;19926;-72
2023/09/29 01:27:49;;;;;;;;;;;15.80;99.90;;;15.35;100.00;97804.59;4985755;28;19984;-72
2023/09/29 01:30:18;;;;;;;;;;;15.80;99.90;;;15.40;100.00;97797.31;4984239;28;20358;-72
2023/09/29 01:32:52;;;;;;;;;;;15.80;99.90;;;15.31;100.00;97797.00;4985297;28;20390;-72
2023/09/29 01:35:25;;;;;;;;;;;15.80;99.90;;;15.27;100.00;97794.56;4986131;28;19969;-73
2023/09/29 01:37:53;;;;;;;;;;;15.80;99.90;;;15.47;100.00;97800.41;4986007;28;20317;-73
2023/09/29 01:40:22;;;;;;;;;;;15.80;99.90;;;15.39;100.00;97789.53;4980772;28;19930;-73
2023/09/29 01:42:50;;;;;;;;;;;15.80;99.90;;;15.43;100.00;97797.13;4985243;28;19930;-73
2023/09/29 01:45:18;;;;;;;;;;;15.90;99.90;;;15.35;100.00;97790.63;4965543;28;20294;-72
2023/09/29 01:47:46;;;;;;;;;;;15.80;99.90;;;15.28;100.00;97792.81;4983375;28;19925;-73
2023/09/29 01:50:21;;;;;;;;;;;15.80;99.90;;;15.23;100.00;97798.28;4986744;28;19922;-72
2023/09/29 01:52:49;;;;;;;;;;;15.70;99.90;;;15.03;100.00;97791.59;4984732;28;19948;-73
2023/09/29 01:55:23;;;;;;;;;;;15.70;99.90;;;15.00;100.00;97791.75;4974520;28;19944;-73
2023/09/29 01:57:53;;;;;;;;;;;15.60;99.90;;;14.93;100.00;97794.81;4982063;28;19952;-73
2023/09/29 02:00:24;;;;;;;;;;;15.50;99.90;;;14.88;100.00;97797.69;4983811;28;19930;-73
2023/09/29 02:02:53;;;;;;;;;;;15.40;99.90;;;14.85;100.00;97798.69;4982646;28;19926;-72
2023/09/29 02:05:21;;;;;;;;;;;15.40;99.90;;;14.88;100.00;97794.25;4983380;28;19930;-73
2023/09/29 02:07:49;;;;;;;;;;;15.30;99.90;;;15.06;100.00;97790.56;4998833;28;20000;-72
2023/09/29 02:10:21;;;;;;;;;;;15.50;99.90;;;15.24;100.00;97789.50;4984769;28;19930;-72
2023/09/29 02:12:56;;;;;;;;;;;15.60;99.90;;;15.33;100.00;97788.13;4980146;28;19932;-72
2023/09/29 02:15:24;;;;;;;;;;;15.70;99.90;;;15.44;100.00;97783.13;4986508;28;20035;-73
2023/09/29 02:17:52;;;;;;;;;;;15.80;99.90;;;15.54;100.00;97791.25;4981627;28;19937;-73
2023/09/29 02:20:46;;;;;;;;;;;15.90;99.90;;;15.59;100.00;97794.44;4983706;28;19948;-72
2023/09/29 02:23:07;;;;;;;;;;;16.00;99.90;;;15.62;100.00;97796.03;4984747;28;19984;-72
2023/09/29 02:25:34;;;;;;;;;;;16.10;99.90;;;15.61;100.00;97802.19;4983028;28;19922;-72
2023/09/29 02:28:01;;;;;;;;;;;16.10;99.90;;;15.68;100.00;97808.75;4982184;28;20017;-72
2023/09/29 02:30:28;;;;;;;;;;;16.10;99.90;;;15.72;100.00;97799.81;4998529;28;20000;-73
2023/09/29 02:32:55;;;;;;;;;;;16.20;99.90;;;15.77;100.00;97813.47;4983880;28;20426;-72
2023/09/29 02:35:23;;;;;;;;;;;16.20;99.90;;;15.68;100.00;97806.13;4982115;28;20063;-72
2023/09/29 02:37:52;;;;;;;;;;;16.20;99.90;;;15.61;100.00;97804.81;4985121;28;19961;-72
2023/09/29 02:40:20;;;;;;;;;;;16.10;99.90;;;15.66;100.00;97802.75;4998067;28;20000;-72
2023/09/29 02:42:47;;;;;;;;;;;16.10;99.90;;;15.56;100.00;97799.84;4983387;28;20039;-73
2023/09/29 02:45:14;;;;;;;;;;;16.10;99.90;;;15.50;100.00;97808.06;4984570;28;20020;-73
2023/09/29 02:47:47;;;;;;;;;;;16.10;99.90;;;15.62;100.00;97809.09;4983962;28;19930;-72
2023/09/29 02:50:16;;;;;;;;;;;16.20;99.90;;;15.62;100.00;97807.34;4982583;28;20048;-73
2023/09/29 02:52:43;;;;;;;;;;;16.20;99.90;;;15.76;100.00;97818.78;4982679;28;20295;-72
2023/09/29 02:55:14;;;;;;;;;;;16.30;99.90;;;15.62;100.00;97806.50;4968854;28;20009;-73
2023/09/29 02:57:43;;;;;;;;;;;16.30;99.90;;;15.74;100.00;97800.56;4981193;28;20401;-73
2023/09/29 03:00:15;;;;;;;;;;;16.30;99.90;;;15.61;100.00;97794.34;4981424;28;22105;-72
2023/09/29 03:02:44;;;;;;;;;;;16.20;99.90;;;15.56;100.00;97799.03;4977539;28;20465;-72
2023/09/29 03:05:14;;;;;;;;;;;16.10;99.90;;;15.41;100.00;97803.38;4986071;28;19925;-73
2023/09/29 03:07:42;;;;;;;;;;;16.00;99.90;;;15.25;100.00;97796.41;4983408;28;19925;-72
2023/09/29 03:10:12;;;;;;;;;;;15.80;99.90;;;15.16;100.00;97804.78;4980364;28;19961;-72
2023/09/29 03:12:39;;;;;;;;;;;15.80;99.90;;;15.06;100.00;97791.41;4984155;28;20314;-73
2023/09/29 03:15:11;;;;;;;;;;;15.70;99.90;;;15.00;100.00;97798.75;4982378;28;20409;-73
2023/09/29 03:17:38;;;;;;;;;;;15.70;99.90;;;14.99;100.00;97797.09;4982768;28;19969;-72
2023/09/29 03:20:10;;;;;;;;;;;15.60;99.90;;;15.09;100.00;97800.84;4983376;28;19929;-72
2023/09/29 03:22:41;;;;;;;;;;;15.50;99.90;;;15.13;100.00;97799.75;4980804;28;19980;-72
2023/09/29 03:25:16;;;;;;;;;;;15.50;99.90;;;14.84;100.00;97802.22;4981587;28;19926;-72
2023/09/29 03:27:44;;;;;;;;;;;15.40;99.90;;;14.78;100.00;97806.94;4982232;28;20370;-72
2023/09/29 03:30:11;;;;;;;;;;;15.40;99.90;;;14.77;100.00;97810.50;4984520;28;19930;-72
2023/09/29 03:32:39;;;;;;;;;;;15.40;99.90;;;14.93;100.00;97803.47;4979953;28;19980;-72
2023/09/29 03:35:08;;;;;;;;;;;15.40;99.90;;;14.94;100.00;97805.19;4984207;28;19933;-72
2023/09/29 03:37:37;;;;;;;;;;;15.40;99.90;;;15.04;100.00;97806.34;4982150;28;19925;-72
2023/09/29 03:40:11;;;;;;;;;;;15.60;99.90;;;15.19;100.00;97803.75;4983646;28;19930;-72
2023/09/29 03:42:41;;;;;;;;;;;15.70;99.90;;;15.18;100.00;97805.53;4983787;28;19929;-72
2023/09/29 03:45:09;;;;;;;;;;;15.70;99.90;;;15.32;100.00;97802.13;4982338;28;20326;-72
2023/09/29 03:47:36;;;;;;;;;;;15.70;99.90;;;15.29;100.00;97811.94;4983128;28;20004;-73
2023/09/29 03:50:11;;;;;;;;;;;15.70;99.90;;;15.27;100.00;97815.47;4985299;28;19921;-72
2023/09/29 03:52:39;;;;;;;;;;;15.70;99.90;;;15.25;100.00;97811.25;4983525;28;19933;-73
2023/09/29 03:55:09;;;;;;;;;;;15.80;99.90;;;15.25;100.00;97819.94;4984599;28;19929;-73
2023/09/29 03:57:38;;;;;;;;;;;15.80;99.90;;;15.13;100.00;97815.44;4983028;28;20444;-72
2023/09/29 04:00:11;;;;;;;;;;;15.90;99.90;;;15.04;100.00;97816.78;4985477;28;20467;-73
2023/09/29 04:02:41;;;;;;;;;;;15.80;99.90;;;15.09;100.00;97811.31;4979482;28;20342;-72
2023/09/29 04:05:09;;;;;;;;;;;15.80;99.90;;;15.21;100.00;97808.00;4983614;28;19922;-73
2023/09/29 04:07:40;;;;;;;;;;;15.90;99.90;;;15.13;100.00;97806.75;4984901;28;19926;-72
2023/09/29 04:10:12;;;;;;;;;;;15.90;99.90;;;15.30;100.00;97801.38;4978731;28;19968;-72
2023/09/29 04:12:41;;;;;;;;;;;15.90;99.90;;;15.22;100.00;97811.44;4979604;28;19994;-73
2023/09/29 04:15:08;;;;;;;;;;;15.80;99.90;;;15.23;100.00;97813.97;4983007;28;19929;-72
2023/09/29 04:17:36;;;;;;;;;;;15.70;99.90;;;15.08;100.00;97808.78;4981959;28;20497;-72
2023/09/29 04:20:05;;;;;;;;;;;15.60;99.90;;;14.93;100.00;97813.09;4981401;28;20012;-73
2023/09/29 04:22:35;;;;;;;;;;;15.50;99.90;;;14.97;100.00;97818.06;4983612;28;19926;-72
2023/09/29 04:25:02;;;;;;;;;;;15.50;99.90;;;14.82;100.00;97822.41;4983911;28;19933;-73
2023/09/29 04:27:30;;;;;;;;;;;15.40;99.90;;;14.80;100.00;97820.78;4987220;28;19925;-73
2023/09/29 04:29:58;;;;;;;;;;;15.30;99.90;;;14.80;100.00;97819.03;4980202;28;19961;-72
2023/09/29 04:32:25;;;;;;;;;;;15.30;99.90;;;14.68;100.00;97819.69;4981823;28;19926;-72
2023/09/29 04:34:52;;;;;;;;;;;15.30;99.90;;;14.69;100.00;97825.75;4981123;28;20653;-72
2023/09/29 04:37:19;;;;;;;;;;;15.30;99.90;;;14.87;100.00;97813.44;5000906;28;19957;-72
2023/09/29 04:39:46;;;;;;;;;;;15.40;99.90;;;14.84;100.00;97812.69;4983311;28;20496;-72
2023/09/29 04:42:14;;;;;;;;;;;15.40;99.90;;;14.75;100.00;97807.97;4984577;28;20334;-72
2023/09/29 04:44:41;;;;;;;;;;;15.30;99.90;;;14.76;100.00;97801.84;4982123;28;19932;-72
2023/09/29 04:47:08;;;;;;;;;;;15.30;99.90;;;14.71;100.00;97798.66;4981941;28;19930;-72
2023/09/29 04:49:35;;;;;;;;;;;15.30;99.90;;;14.69;100.00;97795.28;4979431;28;19929;-72
2023/09/29 04:52:03;;;;;;;;;;;15.30;99.90;;;14.68;100.00;97790.97;4981860;28;19926;-72
2023/09/29 04:54:30;;;;;;;;;;;15.30;99.90;;;14.70;100.00;97778.66;4981631;28;19976;-72
2023/09/29 04:56:57;;;;;;;;;;;15.20;99.90;;;14.68;100.00;97780.50;4981040;28;19948;-72
2023/09/29 04:59:24;;;;;;;;;;;15.20;99.90;;;14.70;100.00;97780.44;4985732;28;19925;-73
2023/09/29 05:01:51;;;;;;;;;;;15.10;99.90;;;14.60;100.00;97782.72;4981116;28;20427;-73
2023/09/29 05:04:18;;;;;;;;;;;15.00;99.90;;;14.57;100.00;97778.50;4982230;28;19926;-72
2023/09/29 05:06:45;;;;;;;;;;;15.00;99.90;;;14.52;100.00;97779.66;4981881;28;19930;-72
2023/09/29 05:09:12;;;;;;;;;;;15.00;99.90;;;14.46;100.00;97788.69;4984851;28;20067;-72
2023/09/29 05:11:39;;;;;;;;;;;15.00;99.90;;;14.47;100.00;97781.69;4985240;28;19937;-72
2023/09/29 05:14:07;;;;;;;;;;;14.90;99.90;;;14.50;100.00;97789.34;4983552;28;19926;-72
2023/09/29 05:16:34;;;;;;;;;;;14.90;99.90;;;14.30;100.00;97786.06;4985549;28;20032;-72
2023/09/29 05:19:01;;;;;;;;;;;14.90;99.90;;;14.19;100.00;97776.19;4984260;28;20417;-72
2023/09/29 05:21:28;;;;;;;;;;;14.90;99.90;;;14.40;100.00;97786.41;5000804;28;19930;-74
2023/09/29 05:23:57;;;;;;;;;;;14.90;99.90;;;14.34;100.00;97786.72;4983524;28;19930;-72
2023/09/29 05:26:25;;;;;;;;;;;15.00;99.90;;;14.49;100.00;97785.06;4985184;28;19926;-73
2023/09/29 05:28:53;;;;;;;;;;;15.10;99.90;;;14.60;100.00;97778.34;4985096;28;19930;-72
2023/09/29 05:31:21;;;;;;;;;;;15.30;99.90;;;14.76;100.00;97782.72;4986168;28;19932;-72
2023/09/29 05:33:48;;;;;;;;;;;15.40;99.90;;;14.90;100.00;97774.09;4986175;28;20036;-72
2023/09/29 05:36:15;;;;;;;;;;;15.50;99.90;;;15.10;100.00;97789.47;4986078;28;20010;-73
2023/09/29 05:38:43;;;;;;;;;;;15.60;99.90;;;15.24;100.00;97780.81;4984123;28;19977;-72
2023/09/29 05:41:10;;;;;;;;;;;15.80;99.90;;;15.27;100.00;97785.88;5001971;28;20378;-72
2023/09/29 05:43:37;;;;;;;;;;;15.90;99.90;;;15.31;100.00;97797.00;4982735;28;19925;-73
2023/09/29 05:46:04;;;;;;;;;;;15.90;99.90;;;15.35;100.00;97796.75;4983771;28;19933;-72
2023/09/29 05:48:31;;;;;;;;;;;16.00;99.90;;;15.33;100.00;97793.38;4985355;28;19937;-72
2023/09/29 05:51:00;;;;;;;;;;;16.10;99.90;;;15.36;100.00;97795.78;5000319;28;20429;-72
2023/09/29 05:53:27;;;;;;;;;;;16.10;99.90;;;15.43;100.00;97799.72;4984588;28;20379;-72
2023/09/29 05:55:54;;;;;;;;;;;16.00;99.90;;;15.44;100.00;97797.94;4983223;28;19985;-73
2023/09/29 05:58:22;;;;;;;;;;;16.00;99.90;;;15.26;100.00;97789.44;4987352;28;19926;-73
2023/09/29 06:00:49;;;;;;;;;;;15.90;99.90;;;15.44;100.00;97788.34;4987357;28;20016;-72
2023/09/29 06:03:16;;;;;;;;;;;15.90;99.90;;;15.55;100.00;97784.25;4985341;28;19930;-73
2023/09/29 06:05:43;;;;;;;;;;;16.00;99.90;;;15.96;100.00;97788.78;5001453;28;19926;-72
2023/09/29 06:08:10;;;;;;;;;;;16.20;99.90;;;16.00;100.00;97791.13;4966059;28;19925;-73
2023/09/29 06:10:40;;;;;;;;;;;16.40;99.90;;;16.20;100.00;97805.63;4984656;28;20012;-72
2023/09/29 06:13:07;;;;;;;;;;;16.60;99.90;;;16.15;100.00;97802.44;4985228;28;19926;-72
2023/09/29 06:15:37;;;;;;;;;;;16.70;99.90;;;16.01;100.00;97802.44;4982425;28;19980;-73
2023/09/29 06:18:04;;;;;;;;;;;16.60;99.90;;;15.96;100.00;97805.34;4985979;28;19995;-73
2023/09/29 06:20:31;;;;;;;;;;;16.70;99.90;;;15.89;100.00;97807.47;4984552;28;19926;-72
2023/09/29 06:22:58;;;;;;;;;;;16.60;99.90;;;15.81;100.00;97804.50;4963603;28;19926;-72
2023/09/29 06:25:26;;;;;;;;;;;16.60;99.90;;;16.14;100.00;97818.25;4984626;28;19926;-73
2023/09/29 06:27:53;;;;;;;;;;;16.60;99.90;;;16.21;100.00;97820.38;4983995;28;20499;-73
2023/09/29 06:30:20;;;;;;;;;;;16.60;99.90;;;16.21;100.00;97820.38;4983121;28;19921;-73
2023/09/29 06:32:47;;;;;;;;;;;16.70;99.90;;;16.39;100.00;97822.81;4985104;28;19948;-73
2023/09/29 06:35:14;;;;;;;;;;;16.70;99.90;;;16.45;100.00;97825.91;4986047;28;20381;-73
2023/09/29 06:37:42;;;;;;;;;;;16.80;99.90;;;16.59;100.00;97822.41;4984151;28;19926;-72
2023/09/29 06:40:10;;;;;;;;;;;16.90;99.90;;;16.64;100.00;97815.09;4985793;28;19941;-73
2023/09/29 06:42:38;;;;;;;;;;;17.00;99.90;;;16.88;100.00;97817.13;4983580;28;19996;-72
2023/09/29 06:45:07;;;;;;;;;;;17.10;99.90;;;17.10;100.00;97804.28;4983180;28;19926;-72
2023/09/29 06:47:34;;;;;;;;;;;17.30;99.90;;;17.25;100.00;97793.75;4983290;28;19928;-73
2023/09/29 06:50:01;;;;;;;;;;;17.50;99.90;;;17.43;100.00;97797.78;4969496;28;19922;-73
2023/09/29 06:52:28;;;;;;;;;;;17.70;99.90;;;17.51;100.00;97790.19;4984245;28;19926;-73
2023/09/29 06:54:55;;;;;;;;;;;17.90;99.90;;;17.65;100.00;97777.94;4984904;28;20671;-74
2023/09/29 06:57:22;;;;;;;;;;;18.10;99.90;;;17.91;100.00;97777.03;4986342;28;19929;-73
2023/09/29 06:59:50;;;;;;;;;;;18.20;99.90;;;18.12;100.00;97782.56;4984401;28;19926;-73
2023/09/29 07:02:17;;;;;;;;;;;18.50;99.90;;;18.39;100.00;97779.78;4981988;28;19926;-73
2023/09/29 07:04:44;;;;;;;;;;;18.70;99.90;;;18.56;100.00;97778.56;4984471;28;19926;-73
2023/09/29 07:07:11;;;;;;;;;;;18.90;99.90;;;18.66;100.00;97776.13;4998814;28;19921;-72
2023/09/29 07:09:38;;;;;;;;;;;19.10;99.90;;;18.91;100.00;97769.13;4980752;28;19932;-72
2023/09/29 07:12:08;;;;;;;;;;;19.30;99.90;;;19.04;100.00;97761.16;4984461;28;19988;-73
2023/09/29 07:14:35;;;;;;;;;;;19.40;99.90;;;19.04;100.00;97761.97;4982571;28;20036;-73
2023/09/29 07:17:02;;;;;;;;;;;19.60;99.90;;;19.19;100.00;97754.75;4986500;28;19926;-73
2023/09/29 07:19:32;;;;;;;;;;;19.70;99.90;;;19.28;100.00;97761.13;4986190;28;19921;-73
2023/09/29 07:22:11;;;;;;;;;;;19.80;99.90;;;19.32;100.00;97766.03;4980319;28;19929;-73
2023/09/29 07:24:39;;;;;;;;;;;19.80;99.90;;;19.62;100.00;97769.94;4982374;28;19925;-73
2023/09/29 07:27:08;;;;;;;;;;;19.90;99.90;;;19.52;100.00;97756.59;4982059;28;20295;-73
2023/09/29 07:29:35;;;;;;;;;;;20.10;99.90;;;19.64;100.00;97771.50;4981202;28;20013;-72
2023/09/29 07:32:02;;;;;;;;;;;20.10;99.90;;;19.62;100.00;97760.22;4986193;28;20301;-73
2023/09/29 07:34:32;;;;;;;;;;;20.20;99.90;;;19.96;100.00;97768.19;4983900;28;19925;-73
2023/09/29 07:36:59;;;;;;;;;;;20.30;99.90;;;20.30;100.00;97777.88;4981252;28;19925;-73
2023/09/29 07:39:25;;;;;;;;;;;20.60;99.90;;;20.45;100.00;97784.56;4983976;28;19951;-73
2023/09/29 07:41:52;;;;;;;;;;;20.80;99.90;;;20.87;100.00;97780.31;4984126;28;20286;-73
2023/09/29 07:44:19;;;;;;;;;;;21.50;99.90;;;21.25;100.00;97800.06;4983557;28;19925;-73
2023/09/29 07:46:52;;;;;;;;;;;21.90;99.90;;;20.89;100.00;97793.38;4983793;28;20424;-73
2023/09/29 07:49:21;;;;;;;;;;;22.10;99.90;;;20.83;100.00;97805.28;4986080;28;19925;-73
2023/09/29 07:51:49;;;;;;;;;;;22.20;99.90;;;21.14;100.00;97815.13;4981057;28;20398;-73
2023/09/29 07:54:20;;;;;;;;;;;22.70;99.90;;;20.85;100.00;97808.63;4985206;28;19930;-73
2023/09/29 07:56:49;;;;;;;;;;;22.50;99.90;;;20.71;100.00;97814.19;4984298;28;19953;-74
2023/09/29 07:59:18;;;;;;;;;;;21.90;99.90;;;20.46;100.00;97816.09;4989534;28;20400;-73
2023/09/29 08:01:49;;;;;;;;;;;21.70;99.90;;;20.61;100.00;97829.88;4988111;28;19925;-73
2023/09/29 08:04:16;;;;;;;;;;;21.70;99.90;;;20.65;100.00;97833.13;4984598;28;19996;-73
2023/09/29 08:06:44;;;;;;;;;;;21.60;99.90;;;20.62;100.00;97834.22;4985578;28;19933;-73
2023/09/29 08:09:12;;;;;;;;;;;21.40;99.90;;;20.16;100.00;97839.56;4986179;28;19976;-73
2023/09/29 08:11:42;;;;;;;;;;;21.20;99.90;;;19.91;100.00;97836.22;4986846;28;19930;-73
2023/09/29 08:14:09;;;;;;;;;;;20.80;99.90;;;19.68;100.00;97848.44;4986708;28;20332;-73
2023/09/29 08:16:36;;;;;;;;;;;20.60;99.90;;;19.58;100.00;97839.56;4986507;28;19964;-73
2023/09/29 08:19:04;;;;;;;;;;;20.30;99.90;;;19.48;100.00;97834.16;4985972;28;19925;-73
2023/09/29 08:21:33;;;;;;;;;;;20.20;99.90;;;19.49;100.00;97849.00;4987580;28;19980;-73
2023/09/29 08:24:06;;;;;;;;;;;20.30;99.90;;;20.10;100.00;97850.63;4984424;28;19929;-73
2023/09/29 08:26:34;;;;;;;;;;;20.80;99.90;;;20.82;100.00;97851.09;4986891;28;19933;-73
2023/09/29 08:29:01;;;;;;;;;;;21.60;99.90;;;21.77;100.00;97847.75;4986805;28;19925;-73
2023/09/29 08:31:28;;;;;;;;;;;22.20;99.90;;;22.54;100.00;97843.88;4987617;28;19921;-74
2023/09/29 08:33:55;;;;;;;;;;;22.70;99.90;;;22.13;100.00;97843.78;4990526;28;19932;-73
2023/09/29 08:36:22;;;;;;;;;;;22.80;99.90;;;22.25;100.00;97855.16;4989577;28;19932;-73
2023/09/29 08:38:49;;;;;;;;;;;23.30;99.90;;;22.50;100.00;97845.09;4990056;28;20374;-74
2023/09/29 08:41:18;;;;;;;;;;;23.40;99.90;;;22.02;100.00;97840.41;4989265;28;19925;-73
2023/09/29 08:43:46;;;;;;;;;;;23.50;99.90;;;21.76;100.00;97846.09;4985560;28;19960;-73
2023/09/29 08:46:33;;;;;;;;;;;23.40;99.90;;;22.53;100.00;97852.75;4984883;28;19925;-73
2023/09/29 08:49:01;;;;;;;;;;;23.20;99.90;;;21.99;100.00;97832.75;4986315;28;20598;-73
2023/09/29 08:51:28;;;;;;;;;;;23.50;99.90;;;22.54;100.00;97851.81;4984875;28;19926;-74
2023/09/29 08:53:56;;;;;;;;;;;23.30;99.90;;;23.15;100.00;97859.63;4982839;28;19929;-74
2023/09/29 08:56:23;;;;;;;;;;;23.40;99.90;;;22.74;100.00;97856.19;5001560;28;20009;-74
2023/09/29 08:58:50;;;;;;;;;;;23.30;99.90;;;22.41;100.00;97857.31;4983279;28;20366;-74
2023/09/29 09:01:19;;;;;;;;;;;23.60;99.90;;;22.73;100.00;97858.97;4987159;28;19929;-74
2023/09/29 09:03:48;;;;;;;;;;;24.10;99.90;;;22.58;100.00;97857.66;4985920;28;20293;-73
2023/09/29 09:06:24;;;;;;;;;;;24.20;99.90;;;23.24;100.00;97868.56;4983614;28;19936;-73
2023/09/29 09:08:53;;;;;;;;;;;24.20;99.90;;;23.06;100.00;97867.53;4982816;28;19968;-74
2023/09/29 09:11:20;;;;;;;;;;;23.90;99.90;;;22.27;100.00;97871.72;4983814;28;20353;-74
2023/09/29 09:13:58;;;;;;;;;;;24.00;99.90;;;23.26;100.00;97860.47;4986044;28;20266;-74
2023/09/29 09:16:31;;;;;;;;;;;23.90;99.90;;;22.98;100.00;97860.28;4988378;28;19926;-74
2023/09/29 09:19:13;;;;;;;;;;;24.30;99.90;;;23.84;100.00;97888.81;4988025;28;19929;-73
2023/09/29 09:21:41;;;;;;;;;;;24.30;99.90;;;23.60;100.00;97876.78;5000344;28;19937;-74
2023/09/29 09:24:21;;;;;;;;;;;24.00;99.90;;;23.33;100.00;97869.53;5000860;28;20015;-73
2023/09/29 09:26:48;;;;;;;;;;;24.20;99.90;;;22.06;100.00;97870.91;4988744;28;19925;-74
2023/09/29 09:29:17;;;;;;;;;;;24.40;99.90;;;22.31;100.00;97882.88;4984882;28;20229;-74
2023/09/29 09:31:53;;;;;;;;;;;24.00;99.90;;;22.42;100.00;97887.22;4984121;28;19936;-74
2023/09/29 09:34:31;;;;;;;;;;;23.80;99.90;;;21.87;100.00;97896.25;5001289;28;19926;-73
2023/09/29 09:36:58;;;;;;;;;;;24.00;99.90;;;21.69;100.00;97892.47;4983133;28;19936;-73
2023/09/29 09:39:27;;;;;;;;;;;23.60;99.90;;;21.97;100.00;97898.94;4988662;28;19926;-74
2023/09/29 09:41:59;;;;;;;;;;;23.40;99.90;;;22.48;100.00;97895.47;4978964;28;19996;-74
2023/09/29 09:44:27;;;;;;;;;;;23.30;99.90;;;21.93;100.00;97892.22;4983294;28;20386;-74
2023/09/29 09:47:03;;;;;;;;;;;22.90;99.90;;;21.78;100.00;97890.84;4984907;28;19968;-74
2023/09/29 09:49:41;;;;;;;;;;;22.70;99.90;;;21.71;100.00;97883.47;4998209;28;20025;-74
2023/09/29 09:52:12;;;;;;;;;;;22.50;99.90;;;21.49;100.00;97891.50;4984742;28;19937;-74
2023/09/29 09:54:46;;;;;;;;;;;22.30;99.90;;;21.36;100.00;97893.41;4982755;28;19962;-74
2023/09/29 09:57:36;;;;;;;;;;;22.10;99.90;;;21.65;100.00;97902.47;4982761;28;20005;-73
2023/09/29 10:00:10;;;;;;;;;;;22.00;99.90;;;21.65;100.00;97901.63;4986389;28;20394;-74
2023/09/29 10:02:44;;;;;;;;;;;22.00;99.90;;;21.84;100.00;97891.19;4964783;28;19926;-74
2023/09/29 10:05:16;;;;;;;;;;;22.20;99.90;;;21.53;100.00;97895.56;4987493;28;20290;-74
2023/09/29 10:07:47;;;;;;;;;;;22.30;99.90;;;21.87;100.00;97896.25;4980060;28;19922;-74
2023/09/29 10:10:24;;;;;;;;;;;22.30;99.90;;;21.90;100.00;97893.31;4983529;28;19936;-74
2023/09/29 10:12:55;;;;;;;;;;;22.40;99.90;;;21.84;100.00;97896.47;4983843;28;20725;-74
2023/09/29 10:15:22;;;;;;;;;;;22.60;99.90;;;21.80;100.00;97904.78;4986923;28;20021;-73
2023/09/29 10:17:49;;;;;;;;;;;22.20;99.90;;;21.83;100.00;97908.03;4973696;28;20465;-73
2023/09/29 10:20:21;;;;;;;;;;;22.30;99.90;;;22.10;100.00;97886.38;4955945;28;19973;-72
2023/09/29 10:22:54;;;;;;;;;;;22.40;99.90;;;22.50;100.00;97882.97;4970521;28;19976;-73
2023/09/29 10:25:21;;;;;;;;;;;22.60;99.90;;;22.84;100.00;97900.38;4972103;28;20313;-73
2023/09/29 10:27:59;;;;;;;;;;;22.80;99.90;;;23.08;100.00;97886.78;4965899;28;19928;-75
2023/09/29 10:30:27;;;;;;;;;;;22.90;99.90;;;22.70;100.00;97918.28;4958871;28;19921;-74
2023/09/29 10:33:10;;;;;;;;;;;23.00;99.90;;;22.58;100.00;97887.59;4956021;28;19930;-74
2023/09/29 10:35:46;;;;;;;;;;;22.90;99.90;;;22.51;100.00;97916.41;4970097;28;19925;-74
2023/09/29 10:38:26;;;;;;;;;;;22.70;99.90;;;22.55;100.00;97891.31;4971087;28;19926;-74
2023/09/29 10:40:53;;;;;;;;;;;22.70;99.90;;;22.48;100.00;97892.00;4979067;28;20663;-74
2023/09/29 10:43:24;;;;;;;;;;;22.70;99.90;;;22.46;100.00;97907.16;4972394;28;20009;-75
2023/09/29 10:45:51;;;;;;;;;;;22.80;99.90;;;22.27;100.00;97892.88;4983913;28;20091;-74
2023/09/29 10:48:22;;;;;;;;;;;22.80;99.90;;;22.08;100.00;97905.97;4983619;28;20044;-76
2023/09/29 10:50:50;;;;;;;;;;;22.70;99.90;;;22.13;100.00;97907.25;4968518;28;19928;-75
2023/09/29 10:53:21;;;;;;;;;;;22.60;99.90;;;21.89;100.00;97915.41;4984118;28;19929;-75
2023/09/29 10:55:51;;;;;;;;;;;22.40;99.90;;;21.85;100.00;97908.72;4986157;28;19929;-74
2023/09/29 10:58:19;;;;;;;;;;;22.30;99.90;;;21.65;100.00;97926.22;4982375;28;19926;-74
2023/09/29 11:00:51;;;;;;;;;;;22.10;99.90;;;21.58;100.00;97934.81;4962172;28;20306;-74
2023/09/29 11:03:21;;;;;;;;;;;21.80;99.90;;;21.23;100.00;97923.47;4985098;28;19922;-74
2023/09/29 11:05:57;;;;;;;;;;;21.90;99.90;;;21.15;100.00;97915.31;4982256;28;19922;-76
2023/09/29 11:08:29;;;;;;;;;;;21.90;99.90;;;21.35;100.00;97928.69;4967583;28;19934;-74
2023/09/29 11:10:59;;;;;;;;;;;21.80;99.90;;;21.15;100.00;97932.97;4983618;28;19936;-76
2023/09/29 11:13:27;;;;;;;;;;;21.60;99.90;;;21.04;100.00;97945.19;4968883;28;19926;-76
2023/09/29 11:15:56;;;;;;;;;;;21.50;99.90;;;20.88;100.00;97950.00;4969656;28;19989;-78
2023/09/29 11:18:34;;;;;;;;;;;21.40;99.90;;;20.88;100.00;97944.75;4969602;28;19949;-74
2023/09/29 11:21:09;;;;;;;;;;;21.40;99.90;;;20.78;100.00;97957.00;4959786;28;19926;-74